Time;durP1;ratioP1;P1;durP2;ratioP2;P2;SDS_P1;SDS_P2;PMS_P1;PMS_P2;Temp;Humidity;BMP_temperature;BMP_pressure;BME280_temperature;BME280_humidity;BME280_pressure;Samples;Min_cycle;Max_cycle;Signal;HPM_P1;HPM_P2
2023/08/12 00:01:11;;;;;;;0.40;0.40;;;24.30;59.20;;;24.81;43.00;95543.06;5055600;28;20195;-39
2023/08/12 00:03:39;;;;;;;0.30;0.30;;;24.30;59.10;;;24.80;42.87;95548.72;5055399;28;20234;-39
2023/08/12 00:06:07;;;;;;;0.50;0.50;;;24.20;59.30;;;24.77;43.04;95548.16;5054933;28;20560;-39
2023/08/12 00:08:34;;;;;;;0.30;0.30;;;24.20;59.30;;;24.74;43.02;95554.06;5070667;28;20250;-39
2023/08/12 00:11:01;;;;;;;0.40;0.40;;;24.20;59.30;;;24.72;43.15;95548.16;5055146;28;20607;-39
2023/08/12 00:13:28;;;;;;;0.32;0.32;;;24.20;59.40;;;24.70;43.23;95539.56;5054828;28;20200;-39
2023/08/12 00:15:55;;;;;;;0.40;0.40;;;24.20;59.50;;;24.67;43.15;95537.44;5054850;28;20235;-39
2023/08/12 00:18:23;;;;;;;0.50;0.50;;;24.10;59.40;;;24.63;43.37;95541.66;5054851;28;20261;-39
2023/08/12 00:20:51;;;;;;;0.30;0.30;;;24.10;59.40;;;24.60;43.06;95534.97;5055061;28;20205;-39
2023/08/12 00:23:18;;;;;;;0.38;0.38;;;24.10;59.30;;;24.59;43.13;95541.41;5054656;28;20301;-39
2023/08/12 00:25:45;;;;;;;0.30;0.30;;;24.10;59.40;;;24.58;43.34;95539.81;5055027;28;20207;-39
2023/08/12 00:28:13;;;;;;;0.40;0.40;;;24.00;59.50;;;24.57;43.42;95540.88;5054743;28;20233;-39
2023/08/12 00:30:40;;;;;;;0.40;0.40;;;24.00;59.50;;;24.57;43.25;95546.25;5054938;28;20203;-39
2023/08/12 00:33:07;;;;;;;0.40;0.40;;;24.00;59.50;;;24.55;43.28;95543.00;5054687;28;20219;-39
2023/08/12 00:35:35;;;;;;;0.40;0.40;;;24.00;59.60;;;24.51;43.53;95533.88;5054754;28;20281;-39
2023/08/12 00:38:03;;;;;;;0.30;0.30;;;24.00;59.60;;;24.49;43.38;95541.38;5055159;28;20533;-39
2023/08/12 00:40:30;;;;;;;0.30;0.30;;;24.00;59.60;;;24.47;43.49;95532.78;5070319;28;20213;-39
2023/08/12 00:42:57;;;;;;;0.45;0.45;;;24.00;59.70;;;24.46;43.58;95525.81;5054521;28;20314;-39
2023/08/12 00:45:25;;;;;;;0.30;0.30;;;23.90;59.60;;;24.45;43.51;95526.91;5054632;28;20188;-39
2023/08/12 00:47:52;;;;;;;0.30;0.30;;;23.90;59.70;;;24.42;43.59;95527.44;5054418;28;20200;-39
2023/08/12 00:50:20;;;;;;;0.40;0.40;;;23.90;59.70;;;24.39;43.74;95525.25;5054529;28;20203;-39
2023/08/12 00:52:48;;;;;;;0.30;0.30;;;23.90;59.80;;;24.36;43.53;95526.59;5053377;28;20231;-39
2023/08/12 00:55:17;;;;;;;0.40;0.40;;;23.90;60.80;;;24.33;43.72;95516.41;5053425;28;20603;-39
2023/08/12 00:57:44;;;;;;;0.30;0.30;;;23.90;60.80;;;24.29;43.75;95515.31;5053597;28;20219;-39
2023/08/12 01:00:12;;;;;;;0.40;0.40;;;23.80;59.70;;;24.25;43.74;95517.72;5054401;28;20226;-39
2023/08/12 01:02:47;;;;;;;0.30;0.30;;;23.80;59.80;;;24.25;43.88;95514.25;5054579;28;20196;-39
2023/08/12 01:05:16;;;;;;;0.30;0.30;;;23.80;59.90;;;24.24;43.64;95524.16;5056433;28;20190;-39
2023/08/12 01:07:45;;;;;;;0.38;0.38;;;23.80;59.90;;;24.24;43.97;95521.50;5057234;28;20760;-39
2023/08/12 01:10:16;;;;;;;0.40;0.40;;;23.80;60.00;;;24.25;43.77;95512.34;5073886;28;20257;-39
2023/08/12 01:13:09;;;;;;;0.40;0.40;;;23.70;60.00;;;24.24;44.03;95517.97;5058417;28;20611;-39
2023/08/12 01:15:38;;;;;;;0.30;0.30;;;23.70;60.00;;;24.24;43.73;95517.97;5058014;28;20205;-39
2023/08/12 01:18:06;;;;;;;0.30;0.30;;;23.70;59.90;;;24.23;43.97;95517.19;5024431;28;20543;-39
2023/08/12 01:20:34;;;;;;;0.40;0.40;;;23.70;59.90;;;24.23;43.79;95514.50;5057125;28;20192;-39
2023/08/12 01:23:15;;;;;;;0.30;0.30;;;23.70;60.00;;;24.22;43.96;95518.25;5056988;28;20239;-39
2023/08/12 01:25:43;;;;;;;0.55;0.55;;;23.70;60.00;;;24.20;44.03;95516.91;5057942;28;20210;-39
2023/08/12 01:28:10;;;;;;;0.43;0.43;;;23.70;59.90;;;24.20;43.88;95515.03;5058091;28;20193;-39
2023/08/12 01:31:16;;;;;;;0.40;0.40;;;23.70;60.90;;;24.16;44.03;95513.94;5056889;28;20215;-39
2023/08/12 01:34:05;;;;;;;0.40;0.40;;;23.70;60.00;;;24.14;44.07;95510.72;5055767;28;20203;-39
2023/08/12 01:36:37;;;;;;;0.60;0.60;;;23.70;60.10;;;24.12;44.02;95502.13;5058003;28;20184;-39
2023/08/12 01:39:06;;;;;;;0.32;0.32;;;23.60;60.10;;;24.07;44.04;95507.47;5040192;28;20627;-39
2023/08/12 01:41:33;;;;;;;0.40;0.40;;;23.60;60.00;;;24.05;44.19;95497.03;5056579;28;20217;-39
2023/08/12 01:44:02;;;;;;;0.40;0.40;;;23.60;60.00;;;24.03;44.03;95501.84;5057352;28;20207;-39
2023/08/12 01:46:31;;;;;;;0.40;0.40;;;23.60;60.10;;;24.04;44.18;95499.97;5056662;28;20302;-39
2023/08/12 01:48:58;;;;;;;0.40;0.40;;;23.50;60.10;;;24.02;44.01;95483.34;5057413;28;20195;-39
2023/08/12 01:51:27;;;;;;;0.38;0.38;;;23.50;60.20;;;24.01;44.30;95487.09;5057342;28;20202;-39
2023/08/12 01:53:54;;;;;;;0.30;0.30;;;23.50;60.20;;;23.99;44.12;95484.69;5057105;28;20258;-39
2023/08/12 01:56:21;;;;;;;0.40;0.40;;;23.50;60.20;;;23.97;44.23;95479.59;5057592;28;20192;-39
2023/08/12 01:58:48;;;;;;;0.43;0.43;;;23.50;60.20;;;23.96;44.28;95479.84;5056281;28;20204;-39
2023/08/12 02:01:15;;;;;;;0.40;0.40;;;23.50;60.30;;;23.92;44.29;95479.56;5057188;28;20202;-39
2023/08/12 02:03:43;;;;;;;0.40;0.40;;;23.50;60.20;;;23.86;44.50;95477.91;5056124;28;20219;-39
2023/08/12 02:06:11;;;;;;;0.40;0.40;;;23.50;60.30;;;23.83;44.28;95478.44;5057007;28;20533;-39
2023/08/12 02:08:38;;;;;;;0.30;0.30;;;23.40;60.30;;;23.81;44.22;95481.38;5057104;28;20188;-39
2023/08/12 02:11:05;;;;;;;0.38;0.38;;;23.40;60.20;;;23.82;44.52;95479.50;5056054;28;20199;-39
2023/08/12 02:13:32;;;;;;;0.40;0.40;;;23.40;60.30;;;23.81;44.53;95475.22;5056674;28;20206;-39
2023/08/12 02:16:00;;;;;;;0.30;0.30;;;23.40;60.40;;;23.81;44.46;95483.25;5054693;28;20218;-39
2023/08/12 02:18:27;;;;;;;0.40;0.40;;;23.40;60.50;;;23.79;44.52;95478.16;5056820;28;20264;-39
2023/08/12 02:20:54;;;;;;;0.40;0.40;;;23.30;60.50;;;23.78;44.73;95475.75;5055864;28;20214;-39
2023/08/12 02:23:21;;;;;;;0.40;0.40;;;23.30;60.30;;;23.77;44.72;95479.50;5056963;28;20216;-39
2023/08/12 02:25:48;;;;;;;0.40;0.40;;;23.30;60.40;;;23.76;44.73;95488.59;5057779;28;20227;-40
2023/08/12 02:28:16;;;;;;;0.43;0.43;;;23.30;60.50;;;23.76;44.60;95488.59;5055871;28;20215;-39
2023/08/12 02:30:43;;;;;;;0.40;0.40;;;23.30;60.60;;;23.76;44.65;95480.56;5056664;28;20199;-39
2023/08/12 02:33:10;;;;;;;0.30;0.30;;;23.30;60.60;;;23.75;44.95;95477.06;5056869;28;20195;-39
2023/08/12 02:35:38;;;;;;;0.40;0.40;;;23.30;60.50;;;23.75;44.48;95482.41;5072642;28;20219;-39
2023/08/12 02:38:05;;;;;;;0.40;0.40;;;23.30;60.50;;;23.73;44.63;95479.22;5072583;28;20673;-39
2023/08/12 02:40:32;;;;;;;0.40;0.40;;;23.30;60.50;;;23.74;44.65;95480.00;5056328;28;20624;-39
2023/08/12 02:42:59;;;;;;;0.40;0.40;;;23.20;60.40;;;23.72;44.87;95480.28;5055399;28;20310;-39
2023/08/12 02:45:26;;;;;;;0.30;0.30;;;23.20;60.50;;;23.70;44.71;95484.28;5055328;28;20192;-39
2023/08/12 02:47:53;;;;;;;0.40;0.40;;;23.20;60.50;;;23.70;44.76;95477.03;5056238;28;20199;-39
2023/08/12 02:50:20;;;;;;;0.40;0.40;;;23.20;60.50;;;23.71;44.62;95475.19;5055332;28;20206;-39
2023/08/12 02:52:48;;;;;;;0.30;0.30;;;23.20;60.60;;;23.69;44.58;95475.41;5055133;28;20297;-39
2023/08/12 02:55:15;;;;;;;0.40;0.40;;;23.20;60.50;;;23.63;44.61;95465.75;5055119;28;20200;-39
2023/08/12 02:57:42;;;;;;;0.40;0.40;;;23.20;60.30;;;23.55;44.52;95476.97;5055167;28;20260;-39
2023/08/12 03:00:12;;;;;;;0.35;0.35;;;23.20;60.40;;;23.46;45.08;95469.44;5056101;28;20191;-39
2023/08/12 03:02:42;;;;;;;0.30;0.30;;;23.20;60.40;;;23.38;45.00;95469.94;5055121;28;20204;-39
2023/08/12 03:05:10;;;;;;;0.50;0.50;;;23.10;60.40;;;23.32;45.14;95473.63;5056311;28;20209;-39
2023/08/12 03:07:37;;;;;;;0.30;0.30;;;23.10;60.50;;;23.29;45.27;95474.13;5055012;28;20286;-39
2023/08/12 03:10:05;;;;;;;0.30;0.30;;;23.00;60.50;;;23.29;45.16;95469.59;5055901;28;20195;-39
2023/08/12 03:12:32;;;;;;;0.40;0.40;;;23.00;60.60;;;23.30;45.42;95473.91;5054872;28;20203;-39
2023/08/12 03:15:00;;;;;;;0.40;0.40;;;23.00;60.70;;;23.34;45.59;95479.53;5054706;28;20634;-39
2023/08/12 03:17:27;;;;;;;0.40;0.40;;;23.00;60.80;;;23.35;45.22;95475.78;5054817;28;20243;-39
2023/08/12 03:19:59;;;;;;;0.38;0.38;;;23.00;60.90;;;23.33;45.51;95473.38;5054782;28;20225;-39
2023/08/12 03:22:28;;;;;;;0.40;0.40;;;23.00;61.00;;;23.31;45.43;95477.38;5055345;28;20222;-39
2023/08/12 03:24:55;;;;;;;0.40;0.40;;;23.00;60.90;;;23.31;45.21;95480.88;5054461;28;20216;-39
2023/08/12 03:27:23;;;;;;;0.50;0.50;;;23.00;60.90;;;23.33;45.66;95483.28;5054460;28;20206;-39
2023/08/12 03:29:51;;;;;;;0.38;0.38;;;22.90;60.90;;;23.34;45.87;95475.00;5054573;28;20285;-39
2023/08/12 03:32:18;;;;;;;0.40;0.40;;;22.90;60.90;;;23.36;45.48;95472.03;5054547;28;20191;-39
2023/08/12 03:34:48;;;;;;;0.40;0.40;;;22.90;61.00;;;23.37;45.48;95479.00;5054382;28;20200;-39
2023/08/12 03:37:15;;;;;;;0.32;0.32;;;22.90;60.90;;;23.38;45.55;95479.84;5054708;28;20214;-39
2023/08/12 03:39:42;;;;;;;0.40;0.40;;;23.00;61.00;;;23.39;45.50;95479.56;5054411;28;20255;-39
2023/08/12 03:42:10;;;;;;;0.38;0.38;;;23.00;61.00;;;23.38;45.73;95472.59;5054392;28;20309;-39
2023/08/12 03:44:38;;;;;;;0.32;0.32;;;23.00;61.10;;;23.39;45.46;95478.75;5071006;28;20226;-39
2023/08/12 03:47:06;;;;;;;0.40;0.40;;;23.00;61.10;;;23.41;45.56;95473.94;5054316;28;20296;-39
2023/08/12 03:49:35;;;;;;;0.40;0.40;;;22.90;61.10;;;23.42;45.77;95480.91;5054265;28;20202;-39
2023/08/12 03:52:04;;;;;;;0.40;0.40;;;23.00;61.10;;;23.42;45.55;95472.88;5054126;28;20223;-39
2023/08/12 03:54:31;;;;;;;0.38;0.38;;;23.00;61.10;;;23.43;45.67;95477.19;5070747;28;20195;-39
2023/08/12 03:56:58;;;;;;;0.40;0.40;;;23.00;61.20;;;23.43;45.75;95472.63;5054111;28;20265;-39
2023/08/12 03:59:26;;;;;;;0.45;0.45;;;23.00;61.10;;;23.42;45.63;95468.31;5055049;28;20195;-39
2023/08/12 04:01:53;;;;;;;0.40;0.40;;;23.00;61.10;;;23.44;45.63;95473.44;5054076;28;20237;-39
2023/08/12 04:04:20;;;;;;;0.30;0.30;;;23.00;61.10;;;23.43;45.65;95467.25;5053947;28;20237;-39
2023/08/12 04:06:51;;;;;;;0.40;0.40;;;23.00;61.20;;;23.41;45.56;95474.78;5055623;28;20241;-39
2023/08/12 04:09:19;;;;;;;0.30;0.30;;;23.00;61.10;;;23.38;45.70;95474.47;5054032;28;20199;-39
2023/08/12 04:11:46;;;;;;;0.40;0.40;;;23.00;61.10;;;23.35;45.47;95475.78;5055178;28;20195;-39
2023/08/12 04:14:14;;;;;;;0.40;0.40;;;23.00;62.00;;;23.34;45.70;95469.63;5054827;28;20206;-39
2023/08/12 04:16:42;;;;;;;0.38;0.38;;;23.00;61.10;;;23.33;45.54;95472.56;5054965;28;20207;-39
2023/08/12 04:19:10;;;;;;;0.40;0.40;;;23.00;61.00;;;23.27;45.63;95471.72;5053861;28;20551;-39
2023/08/12 04:21:37;;;;;;;0.40;0.40;;;23.00;61.10;;;23.25;45.74;95471.19;5055057;28;20206;-39
2023/08/12 04:24:05;;;;;;;0.40;0.40;;;22.90;61.10;;;23.24;45.73;95472.25;5054720;28;20221;-39
2023/08/12 04:26:32;;;;;;;0.40;0.40;;;22.90;61.00;;;23.25;45.86;95475.72;5055359;28;20202;-39
2023/08/12 04:28:59;;;;;;;0.40;0.40;;;22.90;61.20;;;23.25;45.84;95470.38;5053791;28;20212;-39
2023/08/12 04:31:27;;;;;;;0.40;0.40;;;22.90;62.20;;;23.24;45.83;95466.09;5053747;28;20260;-39
2023/08/12 04:33:55;;;;;;;0.40;0.40;;;22.90;61.30;;;23.22;45.99;95466.34;5053729;28;20215;-39
2023/08/12 04:36:24;;;;;;;0.30;0.30;;;22.90;61.40;;;23.22;46.13;95465.53;5053604;28;20522;-39
2023/08/12 04:38:53;;;;;;;0.35;0.35;;;22.90;61.40;;;23.23;45.97;95476.00;5054683;28;20229;-39
2023/08/12 04:41:20;;;;;;;0.32;0.32;;;22.90;61.40;;;23.24;46.06;95472.25;5058072;28;20278;-37
2023/08/12 04:43:48;;;;;;;0.40;0.40;;;22.90;61.50;;;23.25;46.16;95470.38;5057673;28;20229;-39
2023/08/12 04:46:16;;;;;;;0.35;0.35;;;22.90;61.50;;;23.27;46.06;95470.94;5057525;28;20201;-39
2023/08/12 04:48:43;;;;;;;0.30;0.30;;;22.90;61.50;;;23.27;46.08;95466.38;5057617;28;20670;-39
2023/08/12 04:51:10;;;;;;;0.30;0.30;;;22.90;61.60;;;23.29;46.20;95469.59;5057590;28;20583;-39
2023/08/12 04:53:38;;;;;;;0.40;0.40;;;22.90;61.60;;;23.31;46.14;95464.81;5058390;28;20238;-39
2023/08/12 04:56:05;;;;;;;0.30;0.30;;;22.90;61.70;;;23.35;46.31;95465.06;5057382;28;20222;-39
2023/08/12 04:58:33;;;;;;;0.40;0.40;;;22.90;61.60;;;23.36;46.31;95458.66;5057556;28;20207;-39
2023/08/12 05:01:01;;;;;;;0.30;0.30;;;22.90;61.70;;;23.39;46.22;95465.34;5058358;28;20212;-39
2023/08/12 05:03:29;;;;;;;0.30;0.30;;;23.00;61.80;;;23.41;46.33;95458.72;5057283;28;20278;-39
2023/08/12 05:05:56;;;;;;;0.40;0.40;;;23.00;61.80;;;23.43;46.43;95464.59;5041201;28;20207;-39
2023/08/12 05:08:26;;;;;;;0.40;0.40;;;23.00;61.80;;;23.46;46.54;95461.41;5057352;28;20249;-39
2023/08/12 05:10:55;;;;;;;0.40;0.40;;;23.00;61.90;;;23.48;46.58;95466.50;5057215;28;20295;-39
2023/08/12 05:13:23;;;;;;;0.35;0.35;;;23.00;61.90;;;23.49;46.43;95454.72;5057182;28;20357;-39
2023/08/12 05:15:51;;;;;;;0.35;0.35;;;23.10;61.80;;;23.50;46.56;95456.34;5057347;28;20195;-39
2023/08/12 05:18:18;;;;;;;0.40;0.40;;;23.10;61.80;;;23.52;46.47;95466.78;5057086;28;20206;-39
2023/08/12 05:20:46;;;;;;;0.40;0.40;;;23.10;61.80;;;23.54;46.54;95461.97;5058188;28;20195;-39
2023/08/12 05:23:14;;;;;;;0.30;0.30;;;23.20;61.90;;;23.57;46.63;95458.75;5056984;28;20298;-39
2023/08/12 05:25:43;;;;;;;0.40;0.40;;;23.20;61.80;;;23.57;46.64;95470.31;5056739;28;20245;-39
2023/08/12 05:28:10;;;;;;;0.40;0.40;;;23.20;61.80;;;23.59;46.44;95460.09;5057893;28;20188;-39
2023/08/12 05:30:38;;;;;;;0.43;0.43;;;23.20;61.80;;;23.60;46.56;95461.72;5057799;28;20226;-39
2023/08/12 05:33:05;;;;;;;0.40;0.40;;;23.20;61.80;;;23.61;46.50;95458.00;5058027;28;20223;-39
2023/08/12 05:35:36;;;;;;;0.40;0.40;;;23.20;61.80;;;23.62;46.42;95459.59;5058140;28;20441;-39
2023/08/12 05:38:03;;;;;;;0.40;0.40;;;23.30;61.90;;;23.64;46.42;95456.66;5057696;28;20279;-39
2023/08/12 05:40:30;;;;;;;0.40;0.40;;;23.30;61.90;;;23.65;46.47;95461.75;5057662;28;20274;-39
2023/08/12 05:42:57;;;;;;;0.40;0.40;;;23.30;61.90;;;23.67;46.63;95462.28;5057598;28;20301;-39
2023/08/12 05:45:25;;;;;;;0.38;0.38;;;23.30;61.90;;;23.69;46.63;95459.34;5057331;28;20235;-39
2023/08/12 05:47:52;;;;;;;0.40;0.40;;;23.30;61.90;;;23.70;46.59;95460.16;5057489;28;20189;-39
2023/08/12 05:50:19;;;;;;;0.40;0.40;;;23.30;61.90;;;23.72;46.64;95468.75;5073032;28;20377;-39
2023/08/12 05:52:46;;;;;;;0.40;0.40;;;23.30;61.90;;;23.73;46.63;95465.00;5057288;28;20243;-36
2023/08/12 05:55:13;;;;;;;0.40;0.40;;;23.40;62.00;;;23.73;46.65;95471.16;5057375;28;20204;-36
2023/08/12 05:57:40;;;;;;;0.40;0.40;;;23.40;62.00;;;23.74;46.71;95467.44;5058057;28;20194;-36
2023/08/12 06:00:08;;;;;;;0.40;0.40;;;23.40;62.00;;;23.75;46.63;95465.53;5057490;28;20280;-37
2023/08/12 06:02:38;;;;;;;0.30;0.30;;;23.40;62.00;;;23.76;46.77;95465.28;5057403;28;20222;-36
2023/08/12 06:05:06;;;;;;;0.30;0.30;;;23.40;61.90;;;23.77;46.71;95464.22;5056926;28;20311;-36
2023/08/12 06:07:33;;;;;;;0.40;0.40;;;23.40;61.90;;;23.79;46.52;95458.59;5056152;28;20208;-36
2023/08/12 06:10:01;;;;;;;0.40;0.40;;;23.50;62.00;;;23.79;46.69;95455.91;5057298;28;20587;-36
2023/08/12 06:12:29;;;;;;;0.40;0.40;;;23.50;62.10;;;23.81;46.74;95457.28;5057297;28;20195;-36
2023/08/12 06:14:56;;;;;;;0.40;0.40;;;23.50;62.10;;;23.82;46.91;95452.72;5057157;28;20196;-36
2023/08/12 06:17:23;;;;;;;0.30;0.30;;;23.50;62.10;;;23.82;46.90;95448.16;5055968;28;20636;-36
2023/08/12 06:19:51;;;;;;;0.40;0.40;;;23.50;62.10;;;23.84;46.89;95453.28;5057052;28;20204;-36
2023/08/12 06:22:18;;;;;;;0.43;0.43;;;23.50;62.20;;;23.84;47.00;95453.28;5057000;28;20283;-36
2023/08/12 06:24:45;;;;;;;0.40;0.40;;;23.50;62.10;;;23.85;46.96;95452.19;5057023;28;20298;-36
2023/08/12 06:27:12;;;;;;;0.43;0.43;;;23.50;62.10;;;23.86;46.88;95455.69;5057553;28;20255;-36
2023/08/12 06:29:39;;;;;;;0.40;0.40;;;23.60;62.30;;;23.87;46.93;95452.72;5057667;28;20564;-36
2023/08/12 06:32:07;;;;;;;0.40;0.40;;;23.50;62.20;;;23.90;47.13;95459.44;5055896;28;20627;-36
2023/08/12 06:34:34;;;;;;;0.30;0.30;;;23.60;62.30;;;23.91;46.94;95447.66;5055821;28;20258;-36
2023/08/12 06:37:01;;;;;;;0.30;0.30;;;23.60;62.30;;;23.91;47.15;95451.16;5056744;28;20212;-36
2023/08/12 06:39:28;;;;;;;0.30;0.30;;;23.60;62.30;;;23.93;46.95;95449.03;5056873;28;20224;-36
2023/08/12 06:41:55;;;;;;;0.38;0.38;;;23.60;62.30;;;23.94;46.89;95441.81;5055596;28;20206;-36
2023/08/12 06:44:22;;;;;;;0.40;0.40;;;23.60;62.20;;;23.96;46.95;95439.66;5056452;28;20575;-36
2023/08/12 06:46:49;;;;;;;0.40;0.40;;;23.60;62.20;;;23.95;47.02;95441.53;5072062;28;20253;-36
2023/08/12 06:49:17;;;;;;;0.40;0.40;;;23.70;62.30;;;23.99;47.02;95444.50;5056432;28;20602;-36
2023/08/12 06:51:44;;;;;;;0.30;0.30;;;23.60;62.30;;;23.98;47.23;95446.34;5056215;28;20287;-37
2023/08/12 06:54:12;;;;;;;0.30;0.30;;;23.70;62.30;;;24.02;47.05;95448.53;5056550;28;20199;-36
2023/08/12 06:56:39;;;;;;;0.40;0.40;;;23.70;62.40;;;24.04;46.89;95446.38;5055566;28;20208;-36
2023/08/12 06:59:06;;;;;;;0.30;0.30;;;23.70;62.30;;;24.04;47.06;95438.34;5056262;28;20200;-36
2023/08/12 07:01:33;;;;;;;0.40;0.40;;;23.70;62.30;;;24.06;47.08;95442.38;5055316;28;20209;-36
2023/08/12 07:04:00;;;;;;;0.50;0.50;;;23.70;62.30;;;24.08;47.11;95431.38;5055660;28;20213;-36
2023/08/12 07:06:27;;;;;;;0.30;0.30;;;23.70;62.30;;;24.09;47.09;95439.16;5055683;28;20288;-36
2023/08/12 07:08:55;;;;;;;0.32;0.32;;;23.80;62.30;;;24.11;47.15;95433.53;5056341;28;20216;-36
2023/08/12 07:11:23;;;;;;;0.60;0.60;;;23.80;62.40;;;24.12;47.07;95435.94;5056285;28;20518;-36
2023/08/12 07:13:50;;;;;;;0.40;0.40;;;23.80;62.40;;;24.13;46.92;95429.53;5056169;28;20190;-36
2023/08/12 07:16:17;;;;;;;0.60;0.60;;;23.80;62.30;;;24.16;47.15;95433.56;5056048;28;20204;-36
2023/08/12 07:18:44;;;;;;;0.35;0.35;;;23.80;63.20;;;24.16;47.16;95436.22;5054907;28;20520;-36
2023/08/12 07:21:11;;;;;;;0.50;0.50;;;23.80;62.30;;;24.18;47.03;95433.28;5056497;28;20205;-36
2023/08/12 07:23:39;;;;;;;0.50;0.50;;;23.90;62.40;;;24.21;47.18;95438.13;5056334;28;20193;-36
2023/08/12 07:26:14;;;;;;;0.60;0.60;;;23.90;62.40;;;24.22;47.10;95440.53;5055203;28;20228;-36
2023/08/12 07:28:41;;;;;;;0.40;0.40;;;23.90;62.40;;;24.24;47.01;95435.72;5056037;28;20212;-36
2023/08/12 07:31:09;;;;;;;0.50;0.50;;;23.90;62.40;;;24.22;47.22;95429.81;5054664;28;20622;-36
2023/08/12 07:33:36;;;;;;;0.60;0.60;;;23.90;62.40;;;24.27;47.14;95432.47;5054568;28;20204;-36
2023/08/12 07:36:03;;;;;;;0.50;0.50;;;23.90;62.40;;;24.25;47.00;95418.53;5055364;28;20209;-36
2023/08/12 07:38:30;;;;;;;0.40;0.40;;;24.00;62.50;;;24.29;47.10;95429.53;5055547;28;20609;-36
2023/08/12 07:40:58;;;;;;;0.40;0.40;;;24.00;62.50;;;24.33;47.10;95435.16;5054561;28;20248;-36
2023/08/12 07:43:25;;;;;;;0.32;0.32;;;24.00;62.50;;;24.34;47.18;95420.69;5055927;28;20221;-36
2023/08/12 07:45:53;;;;;;;0.30;0.30;;;24.00;62.50;;;24.35;47.26;95422.31;5055191;28;20655;-36
2023/08/12 07:48:36;;;;;;;0.40;0.40;;;24.00;62.50;;;24.36;47.14;95424.72;5055602;28;20182;-36
2023/08/12 07:51:03;;;;;;;0.32;0.32;;;24.00;62.50;;;24.38;47.23;95416.44;5055557;28;20233;-36
2023/08/12 07:53:30;;;;;;;0.30;0.30;;;24.00;62.50;;;24.40;47.11;95425.81;5054216;28;20239;-36
2023/08/12 07:55:57;;;;;;;0.35;0.35;;;24.00;62.50;;;24.42;46.96;95422.84;5055278;28;20247;-36
2023/08/12 07:58:25;;;;;;;0.40;0.40;;;24.10;62.60;;;24.44;46.93;95426.09;5052135;28;20214;-36
2023/08/12 08:00:55;;;;;;;0.30;0.30;;;24.10;62.50;;;24.46;47.13;95426.59;5067117;28;20295;-36
2023/08/12 08:03:22;;;;;;;0.38;0.38;;;24.10;62.50;;;24.45;47.26;95416.97;5055100;28;20233;-36
2023/08/12 08:05:49;;;;;;;0.30;0.30;;;24.10;62.50;;;24.49;46.87;95422.59;5054030;28;20342;-36
2023/08/12 08:08:18;;;;;;;0.38;0.38;;;24.10;62.50;;;24.50;47.10;95416.16;5053634;28;20216;-36
2023/08/12 08:10:45;;;;;;;0.40;0.40;;;24.10;62.50;;;24.51;47.12;95417.75;5051284;28;20676;-36
2023/08/12 08:13:12;;;;;;;0.40;0.40;;;24.20;62.60;;;24.53;47.25;95413.72;5057451;28;20220;-36
2023/08/12 08:15:39;;;;;;;0.30;0.30;;;24.10;62.50;;;24.56;47.08;95420.44;5055776;28;20239;-36
2023/08/12 08:18:06;;;;;;;0.52;0.52;;;24.20;62.50;;;24.58;47.11;95412.94;5069914;28;20193;-36
2023/08/12 08:20:35;;;;;;;0.35;0.35;;;24.20;62.40;;;24.60;47.03;95414.28;5055279;28;20199;-36
2023/08/12 08:23:02;;;;;;;0.40;0.40;;;24.20;62.40;;;24.62;46.86;95411.34;5055971;28;20292;-36
2023/08/12 08:25:29;;;;;;;0.40;0.40;;;24.30;62.40;;;24.64;46.85;95409.19;5064970;28;20221;-36
2023/08/12 08:27:56;;;;;;;0.30;0.30;;;24.30;62.40;;;24.66;46.86;95412.44;5069457;28;20203;-36
2023/08/12 08:30:25;;;;;;;0.30;0.30;;;24.30;62.30;;;24.68;46.84;95412.97;5062594;28;20224;-36
2023/08/12 08:32:53;;;;;;;0.30;0.30;;;24.30;62.30;;;24.70;46.70;95418.06;5074746;28;20223;-36
2023/08/12 08:35:20;;;;;;;0.50;0.50;;;24.30;62.20;;;24.73;46.94;95412.16;5057638;28;20197;-36
2023/08/12 08:37:47;;;;;;;0.40;0.40;;;24.30;62.10;;;24.74;46.71;95409.22;5054095;28;20551;-36
2023/08/12 08:40:14;;;;;;;0.35;0.35;;;24.40;62.20;;;24.77;46.87;95408.66;5061123;28;20203;-36
2023/08/12 08:42:44;;;;;;;0.25;0.25;;;24.40;62.10;;;24.79;46.65;95411.06;5041271;28;20213;-36
2023/08/12 08:45:15;;;;;;;0.40;0.40;;;24.40;62.10;;;24.82;46.78;95413.22;5071145;28;20217;-36
2023/08/12 08:47:42;;;;;;;0.30;0.30;;;24.40;62.00;;;24.84;46.37;95408.41;5067714;28;20197;-36
2023/08/12 08:50:10;;;;;;;0.30;0.30;;;24.40;61.90;;;24.86;46.45;95403.53;5071602;28;20209;-36
2023/08/12 08:52:38;;;;;;;0.50;0.50;;;24.40;61.80;;;24.85;46.53;95407.34;5073582;28;20229;-36
2023/08/12 08:55:05;;;;;;;0.30;0.30;;;24.50;61.90;;;24.91;46.10;95408.94;5074508;28;20229;-36
2023/08/12 08:57:35;;;;;;;0.30;0.30;;;24.50;61.80;;;24.93;46.21;95408.66;5071598;28;20296;-37
2023/08/12 09:00:18;;;;;;;0.30;0.30;;;24.50;61.70;;;24.94;45.94;95404.91;5055169;28;20224;-36
2023/08/12 09:02:50;;;;;;;0.40;0.40;;;24.50;61.70;;;24.97;46.15;95408.91;5057684;28;20271;-36
2023/08/12 09:05:20;;;;;;;0.40;0.40;;;24.50;61.50;;;24.99;45.80;95412.13;5074771;28;20243;-36
2023/08/12 09:07:49;;;;;;;0.30;0.30;;;24.60;61.60;;;25.00;45.75;95409.19;5073126;28;20656;-36
2023/08/12 09:10:20;;;;;;;0.30;0.30;;;24.60;61.50;;;25.03;45.89;95402.47;5073524;28;20708;-36
2023/08/12 09:12:48;;;;;;;0.30;0.30;;;24.60;62.40;;;25.05;45.69;95405.69;5073998;28;20190;-36
2023/08/12 09:15:17;;;;;;;0.30;0.30;;;24.60;61.40;;;25.07;45.87;95406.19;5073552;28;20205;-36
2023/08/12 09:17:44;;;;;;;0.30;0.30;;;24.60;61.40;;;25.08;45.76;95405.94;5074629;28;20190;-36
2023/08/12 09:20:12;;;;;;;0.50;0.50;;;24.70;61.50;;;25.12;45.47;95400.03;5073387;28;20243;-36
2023/08/12 09:22:43;;;;;;;0.30;0.30;;;24.70;61.40;;;25.13;45.35;95405.09;5074346;28;20228;-36
2023/08/12 09:25:10;;;;;;;0.50;0.50;;;24.70;61.40;;;25.15;45.87;95397.59;5074353;28;20228;-36
2023/08/12 09:27:38;;;;;;;0.40;0.40;;;24.70;61.40;;;25.17;45.63;95395.44;5072737;28;20552;-36
2023/08/12 09:30:07;;;;;;;0.30;0.30;;;24.70;61.40;;;25.20;45.53;95394.09;5077299;28;20538;-36
2023/08/12 09:32:35;;;;;;;0.30;0.30;;;24.80;61.40;;;25.23;45.79;95390.84;5077833;28;20250;-36
2023/08/12 09:35:06;;;;;;;0.38;0.38;;;24.80;61.40;;;25.24;45.44;95395.16;5076764;28;20532;-36
2023/08/12 09:37:33;;;;;;;0.30;0.30;;;24.80;61.40;;;25.26;45.34;95390.31;5077675;28;20186;-36
2023/08/12 09:40:01;;;;;;;0.30;0.30;;;24.90;61.40;;;25.21;45.96;95383.06;5077960;28;20194;-36
2023/08/12 09:42:28;;;;;;;0.40;0.40;;;24.80;61.40;;;25.31;45.64;95386.81;5077628;28;20202;-36
2023/08/12 09:44:57;;;;;;;0.30;0.30;;;24.90;61.40;;;25.34;45.41;95380.88;5077502;28;20365;-36
2023/08/12 09:47:27;;;;;;;0.30;0.30;;;24.90;61.40;;;25.35;45.11;95377.13;5077647;28;20643;-36
2023/08/12 09:49:55;;;;;;;0.40;0.40;;;24.90;61.30;;;25.38;45.53;95387.38;5078068;28;20617;-36
2023/08/12 09:52:22;;;;;;;0.40;0.40;;;24.90;62.20;;;25.39;45.24;95384.41;5077286;28;20310;-36
2023/08/12 09:54:56;;;;;;;0.32;0.32;;;24.90;61.30;;;25.40;45.63;95383.31;5077399;28;20277;-36
2023/08/12 09:57:28;;;;;;;0.30;0.30;;;25.00;61.40;;;25.43;45.38;95384.66;5077423;28;20560;-36
2023/08/12 09:59:57;;;;;;;0.30;0.30;;;25.00;61.30;;;25.46;45.17;95388.66;5055075;28;20699;-36
2023/08/12 10:02:25;;;;;;;0.50;0.50;;;25.00;61.40;;;25.47;45.53;95383.00;5067640;28;20290;-36
2023/08/12 10:04:56;;;;;;;0.40;0.40;;;25.00;62.30;;;25.50;45.56;95387.84;5057088;28;20189;-36
2023/08/12 10:07:25;;;;;;;0.30;0.30;;;25.10;61.40;;;25.53;45.41;95381.13;5056640;28;20606;-36
2023/08/12 10:09:53;;;;;;;0.50;0.50;;;25.10;61.40;;;25.54;45.51;95370.09;5057101;28;20634;-36
2023/08/12 10:12:21;;;;;;;0.30;0.30;;;25.10;61.30;;;25.56;45.39;95367.94;5039803;28;20201;-36
2023/08/12 10:14:48;;;;;;;0.30;0.30;;;25.10;61.30;;;25.59;45.33;95361.22;5057006;28;20281;-36
2023/08/12 10:17:16;;;;;;;0.40;0.40;;;25.10;61.20;;;25.62;45.38;95362.53;5057465;28;20199;-36
2023/08/12 10:20:06;;;;;;;0.30;0.30;;;25.10;61.30;;;25.64;45.13;95355.81;5056963;28;20257;-36
2023/08/12 10:22:34;;;;;;;0.30;0.30;;;25.10;61.20;;;25.67;45.28;95362.50;5057720;28;20564;-36
2023/08/12 10:25:03;;;;;;;0.30;0.30;;;25.20;61.30;;;25.69;45.38;95365.72;5056995;28;20287;-36